sensor_id;sensor_type;location;lat;lon;timestamp;P1;durP1;ratioP1;P2;durP2;ratioP2
24995;SDS011;13016;52.162;21.034;2022-11-15T00:00:25;22.00;;;13.20;;
24995;SDS011;13016;52.162;21.034;2022-11-15T00:02:54;22.80;;;13.90;;
24995;SDS011;13016;52.162;21.034;2022-11-15T00:05:20;21.80;;;13.60;;
24995;SDS011;13016;52.162;21.034;2022-11-15T00:07:45;24.10;;;14.40;;
24995;SDS011;13016;52.162;21.034;2022-11-15T00:10:10;22.40;;;13.90;;
24995;SDS011;13016;52.162;21.034;2022-11-15T00:12:36;22.90;;;13.80;;
24995;SDS011;13016;52.162;21.034;2022-11-15T00:15:01;24.30;;;14.50;;
24995;SDS011;13016;52.162;21.034;2022-11-15T00:17:26;23.60;;;14.70;;
24995;SDS011;13016;52.162;21.034;2022-11-15T00:19:51;22.80;;;14.90;;
24995;SDS011;13016;52.162;21.034;2022-11-15T00:22:17;23.30;;;14.60;;
24995;SDS011;13016;52.162;21.034;2022-11-15T00:24:42;25.60;;;16.90;;
24995;SDS011;13016;52.162;21.034;2022-11-15T00:27:07;25.20;;;14.70;;
24995;SDS011;13016;52.162;21.034;2022-11-15T00:29:33;23.60;;;15.20;;
24995;SDS011;13016;52.162;21.034;2022-11-15T00:31:58;24.90;;;15.50;;
24995;SDS011;13016;52.162;21.034;2022-11-15T00:34:23;25.70;;;16.40;;
24995;SDS011;13016;52.162;21.034;2022-11-15T00:36:48;23.80;;;15.60;;
24995;SDS011;13016;52.162;21.034;2022-11-15T00:39:13;25.20;;;15.80;;
24995;SDS011;13016;52.162;21.034;2022-11-15T00:41:39;21.80;;;13.80;;
24995;SDS011;13016;52.162;21.034;2022-11-15T00:44:04;27.80;;;15.80;;
24995;SDS011;13016;52.162;21.034;2022-11-15T00:46:29;24.80;;;15.30;;
24995;SDS011;13016;52.162;21.034;2022-11-15T00:48:55;24.60;;;16.00;;
24995;SDS011;13016;52.162;21.034;2022-11-15T00:51:20;27.00;;;16.80;;
24995;SDS011;13016;52.162;21.034;2022-11-15T00:53:46;26.00;;;16.40;;
24995;SDS011;13016;52.162;21.034;2022-11-15T00:56:11;25.30;;;16.80;;
24995;SDS011;13016;52.162;21.034;2022-11-15T00:58:36;25.50;;;16.50;;
24995;SDS011;13016;52.162;21.034;2022-11-15T01:01:08;26.60;;;17.00;;
24995;SDS011;13016;52.162;21.034;2022-11-15T01:03:36;28.30;;;17.20;;
24995;SDS011;13016;52.162;21.034;2022-11-15T01:06:03;26.50;;;17.50;;
24995;SDS011;13016;52.162;21.034;2022-11-15T01:08:29;28.20;;;16.50;;
24995;SDS011;13016;52.162;21.034;2022-11-15T01:10:54;28.10;;;17.70;;
24995;SDS011;13016;52.162;21.034;2022-11-15T01:13:19;28.00;;;17.20;;
24995;SDS011;13016;52.162;21.034;2022-11-15T01:15:45;28.00;;;17.20;;
24995;SDS011;13016;52.162;21.034;2022-11-15T01:18:10;30.80;;;18.10;;
24995;SDS011;13016;52.162;21.034;2022-11-15T01:20:39;29.60;;;17.60;;
24995;SDS011;13016;52.162;21.034;2022-11-15T01:23:07;29.80;;;17.90;;
24995;SDS011;13016;52.162;21.034;2022-11-15T01:25:33;27.70;;;17.20;;
24995;SDS011;13016;52.162;21.034;2022-11-15T01:27:58;29.60;;;17.00;;
24995;SDS011;13016;52.162;21.034;2022-11-15T01:30:23;32.10;;;18.10;;
24995;SDS011;13016;52.162;21.034;2022-11-15T01:32:49;30.00;;;18.10;;
24995;SDS011;13016;52.162;21.034;2022-11-15T01:35:14;29.30;;;16.60;;
24995;SDS011;13016;52.162;21.034;2022-11-15T01:37:39;30.10;;;17.40;;
24995;SDS011;13016;52.162;21.034;2022-11-15T01:40:05;30.70;;;17.40;;
24995;SDS011;13016;52.162;21.034;2022-11-15T01:42:31;30.80;;;18.90;;
24995;SDS011;13016;52.162;21.034;2022-11-15T01:44:56;28.50;;;16.50;;
24995;SDS011;13016;52.162;21.034;2022-11-15T01:47:23;26.60;;;16.30;;
24995;SDS011;13016;52.162;21.034;2022-11-15T01:52:26;29.00;;;16.00;;
24995;SDS011;13016;52.162;21.034;2022-11-15T01:54:59;29.70;;;16.50;;
24995;SDS011;13016;52.162;21.034;2022-11-15T01:57:26;26.20;;;15.90;;
24995;SDS011;13016;52.162;21.034;2022-11-15T01:59:53;28.10;;;16.40;;
24995;SDS011;13016;52.162;21.034;2022-11-15T02:02:19;26.70;;;16.50;;
24995;SDS011;13016;52.162;21.034;2022-11-15T02:04:45;30.70;;;16.70;;
24995;SDS011;13016;52.162;21.034;2022-11-15T02:07:13;28.00;;;17.40;;
24995;SDS011;13016;52.162;21.034;2022-11-15T02:12:28;27.90;;;16.00;;
24995;SDS011;13016;52.162;21.034;2022-11-15T02:14:53;28.80;;;16.60;;
24995;SDS011;13016;52.162;21.034;2022-11-15T02:41:47;30.70;;;17.70;;
24995;SDS011;13016;52.162;21.034;2022-11-15T02:44:30;28.70;;;18.10;;
24995;SDS011;13016;52.162;21.034;2022-11-15T02:47:03;27.20;;;17.30;;
24995;SDS011;13016;52.162;21.034;2022-11-15T02:49:32;31.80;;;17.50;;
24995;SDS011;13016;52.162;21.034;2022-11-15T02:51:59;30.50;;;18.70;;
24995;SDS011;13016;52.162;21.034;2022-11-15T02:54:25;33.10;;;19.40;;
24995;SDS011;13016;52.162;21.034;2022-11-15T02:56:54;30.20;;;17.60;;
24995;SDS011;13016;52.162;21.034;2022-11-15T03:02:14;33.40;;;19.20;;
24995;SDS011;13016;52.162;21.034;2022-11-15T03:10:26;35.00;;;20.60;;
24995;SDS011;13016;52.162;21.034;2022-11-15T03:16:16;37.50;;;20.20;;
24995;SDS011;13016;52.162;21.034;2022-11-15T03:19:43;39.50;;;20.50;;
24995;SDS011;13016;52.162;21.034;2022-11-15T03:21:54;35.70;;;19.70;;
24995;SDS011;13016;52.162;21.034;2022-11-15T03:24:23;37.00;;;20.10;;
24995;SDS011;13016;52.162;21.034;2022-11-15T03:26:50;35.90;;;20.30;;
24995;SDS011;13016;52.162;21.034;2022-11-15T03:29:20;34.20;;;20.10;;
24995;SDS011;13016;52.162;21.034;2022-11-15T03:31:51;33.70;;;19.50;;
24995;SDS011;13016;52.162;21.034;2022-11-15T03:34:27;37.80;;;21.30;;
24995;SDS011;13016;52.162;21.034;2022-11-15T03:36:58;35.80;;;20.20;;
24995;SDS011;13016;52.162;21.034;2022-11-15T03:39:24;38.20;;;21.70;;
24995;SDS011;13016;52.162;21.034;2022-11-15T03:47:36;34.20;;;18.80;;
24995;SDS011;13016;52.162;21.034;2022-11-15T03:50:07;36.40;;;21.10;;
24995;SDS011;13016;52.162;21.034;2022-11-15T03:52:38;37.40;;;21.10;;
24995;SDS011;13016;52.162;21.034;2022-11-15T03:55:06;33.80;;;19.90;;
24995;SDS011;13016;52.162;21.034;2022-11-15T03:57:33;35.30;;;20.40;;
24995;SDS011;13016;52.162;21.034;2022-11-15T03:59:59;35.60;;;20.60;;
24995;SDS011;13016;52.162;21.034;2022-11-15T04:02:24;37.10;;;21.10;;
24995;SDS011;13016;52.162;21.034;2022-11-15T04:04:49;34.10;;;19.90;;
24995;SDS011;13016;52.162;21.034;2022-11-15T04:07:14;29.80;;;17.40;;
24995;SDS011;13016;52.162;21.034;2022-11-15T04:09:40;36.00;;;17.30;;
24995;SDS011;13016;52.162;21.034;2022-11-15T04:12:05;34.50;;;18.50;;
24995;SDS011;13016;52.162;21.034;2022-11-15T04:14:30;33.00;;;18.30;;
24995;SDS011;13016;52.162;21.034;2022-11-15T04:16:55;30.10;;;17.70;;
24995;SDS011;13016;52.162;21.034;2022-11-15T04:19:21;32.10;;;18.70;;
24995;SDS011;13016;52.162;21.034;2022-11-15T04:21:46;33.20;;;19.40;;
24995;SDS011;13016;52.162;21.034;2022-11-15T04:24:11;31.80;;;18.40;;
24995;SDS011;13016;52.162;21.034;2022-11-15T04:26:36;35.40;;;19.10;;
24995;SDS011;13016;52.162;21.034;2022-11-15T04:29:02;35.30;;;18.90;;
24995;SDS011;13016;52.162;21.034;2022-11-15T04:31:27;35.30;;;18.60;;
24995;SDS011;13016;52.162;21.034;2022-11-15T04:33:53;33.10;;;19.30;;
24995;SDS011;13016;52.162;21.034;2022-11-15T04:36:19;32.00;;;17.30;;
24995;SDS011;13016;52.162;21.034;2022-11-15T04:38:45;31.30;;;17.70;;
24995;SDS011;13016;52.162;21.034;2022-11-15T04:41:10;37.20;;;19.70;;
24995;SDS011;13016;52.162;21.034;2022-11-15T04:43:35;33.40;;;18.20;;
24995;SDS011;13016;52.162;21.034;2022-11-15T04:46:00;37.70;;;20.70;;
24995;SDS011;13016;52.162;21.034;2022-11-15T04:48:26;35.30;;;18.50;;
24995;SDS011;13016;52.162;21.034;2022-11-15T04:50:51;36.60;;;19.70;;
24995;SDS011;13016;52.162;21.034;2022-11-15T04:53:16;37.60;;;19.80;;
24995;SDS011;13016;52.162;21.034;2022-11-15T04:55:44;34.70;;;19.70;;
24995;SDS011;13016;52.162;21.034;2022-11-15T04:58:12;34.50;;;19.60;;
24995;SDS011;13016;52.162;21.034;2022-11-15T05:00:37;38.90;;;20.00;;
24995;SDS011;13016;52.162;21.034;2022-11-15T05:03:02;32.30;;;18.00;;
24995;SDS011;13016;52.162;21.034;2022-11-15T05:05:28;29.60;;;17.30;;
24995;SDS011;13016;52.162;21.034;2022-11-15T05:07:53;33.60;;;17.60;;
24995;SDS011;13016;52.162;21.034;2022-11-15T05:10:18;34.90;;;19.10;;
24995;SDS011;13016;52.162;21.034;2022-11-15T05:12:43;33.30;;;17.40;;
24995;SDS011;13016;52.162;21.034;2022-11-15T05:15:09;33.60;;;17.90;;
24995;SDS011;13016;52.162;21.034;2022-11-15T05:17:34;38.10;;;20.00;;
24995;SDS011;13016;52.162;21.034;2022-11-15T05:19:59;37.10;;;20.30;;
24995;SDS011;13016;52.162;21.034;2022-11-15T05:22:25;40.60;;;19.40;;
24995;SDS011;13016;52.162;21.034;2022-11-15T05:24:50;38.80;;;20.30;;
24995;SDS011;13016;52.162;21.034;2022-11-15T05:27:15;38.50;;;19.60;;
24995;SDS011;13016;52.162;21.034;2022-11-15T05:29:41;38.70;;;20.50;;
24995;SDS011;13016;52.162;21.034;2022-11-15T05:32:06;34.90;;;18.40;;
24995;SDS011;13016;52.162;21.034;2022-11-15T05:34:33;34.50;;;18.40;;
24995;SDS011;13016;52.162;21.034;2022-11-15T05:36:59;34.10;;;18.80;;
24995;SDS011;13016;52.162;21.034;2022-11-15T05:39:24;34.20;;;18.70;;
24995;SDS011;13016;52.162;21.034;2022-11-15T05:41:51;31.00;;;18.20;;
24995;SDS011;13016;52.162;21.034;2022-11-15T05:44:20;35.10;;;19.00;;
24995;SDS011;13016;52.162;21.034;2022-11-15T05:46:47;34.80;;;20.00;;
24995;SDS011;13016;52.162;21.034;2022-11-15T05:49:15;35.20;;;18.40;;
24995;SDS011;13016;52.162;21.034;2022-11-15T05:51:44;36.20;;;19.20;;
24995;SDS011;13016;52.162;21.034;2022-11-15T05:54:13;40.40;;;19.30;;
24995;SDS011;13016;52.162;21.034;2022-11-15T05:56:40;36.20;;;19.40;;
24995;SDS011;13016;52.162;21.034;2022-11-15T05:59:05;38.00;;;19.20;;
24995;SDS011;13016;52.162;21.034;2022-11-15T06:01:32;36.40;;;18.00;;
24995;SDS011;13016;52.162;21.034;2022-11-15T06:03:58;38.80;;;19.10;;
24995;SDS011;13016;52.162;21.034;2022-11-15T06:06:23;37.30;;;18.70;;
24995;SDS011;13016;52.162;21.034;2022-11-15T06:08:49;39.10;;;19.60;;
24995;SDS011;13016;52.162;21.034;2022-11-15T06:11:14;35.00;;;18.20;;
24995;SDS011;13016;52.162;21.034;2022-11-15T06:13:39;35.30;;;18.20;;
24995;SDS011;13016;52.162;21.034;2022-11-15T06:16:05;38.00;;;18.70;;
24995;SDS011;13016;52.162;21.034;2022-11-15T06:18:34;39.50;;;20.40;;
24995;SDS011;13016;52.162;21.034;2022-11-15T06:21:00;34.20;;;18.10;;
24995;SDS011;13016;52.162;21.034;2022-11-15T06:23:26;37.70;;;19.50;;
24995;SDS011;13016;52.162;21.034;2022-11-15T06:25:52;37.20;;;18.90;;
24995;SDS011;13016;52.162;21.034;2022-11-15T06:28:18;36.10;;;19.30;;
24995;SDS011;13016;52.162;21.034;2022-11-15T06:30:43;30.30;;;17.30;;
24995;SDS011;13016;52.162;21.034;2022-11-15T06:33:08;40.30;;;19.50;;
24995;SDS011;13016;52.162;21.034;2022-11-15T06:35:34;38.40;;;18.40;;
24995;SDS011;13016;52.162;21.034;2022-11-15T06:38:04;32.90;;;17.20;;
24995;SDS011;13016;52.162;21.034;2022-11-15T06:40:32;37.20;;;18.20;;
24995;SDS011;13016;52.162;21.034;2022-11-15T06:42:59;35.20;;;17.70;;
24995;SDS011;13016;52.162;21.034;2022-11-15T06:45:24;34.20;;;17.50;;
24995;SDS011;13016;52.162;21.034;2022-11-15T06:47:50;34.30;;;17.30;;
24995;SDS011;13016;52.162;21.034;2022-11-15T06:50:15;28.40;;;15.80;;
24995;SDS011;13016;52.162;21.034;2022-11-15T06:52:41;32.10;;;17.40;;
24995;SDS011;13016;52.162;21.034;2022-11-15T06:55:06;33.70;;;17.40;;
24995;SDS011;13016;52.162;21.034;2022-11-15T06:57:32;40.20;;;19.70;;
24995;SDS011;13016;52.162;21.034;2022-11-15T06:59:57;36.50;;;18.30;;
24995;SDS011;13016;52.162;21.034;2022-11-15T07:02:23;35.90;;;17.60;;
24995;SDS011;13016;52.162;21.034;2022-11-15T07:04:48;35.30;;;18.00;;
24995;SDS011;13016;52.162;21.034;2022-11-15T07:07:13;30.20;;;16.00;;
24995;SDS011;13016;52.162;21.034;2022-11-15T07:09:38;34.00;;;16.50;;
24995;SDS011;13016;52.162;21.034;2022-11-15T07:12:04;35.50;;;17.40;;
24995;SDS011;13016;52.162;21.034;2022-11-15T07:14:30;31.90;;;16.20;;
24995;SDS011;13016;52.162;21.034;2022-11-15T07:16:55;30.90;;;16.70;;
24995;SDS011;13016;52.162;21.034;2022-11-15T07:19:20;33.40;;;16.90;;
24995;SDS011;13016;52.162;21.034;2022-11-15T07:21:45;32.80;;;16.20;;
24995;SDS011;13016;52.162;21.034;2022-11-15T07:24:11;31.10;;;15.40;;
24995;SDS011;13016;52.162;21.034;2022-11-15T07:26:36;30.80;;;16.80;;
24995;SDS011;13016;52.162;21.034;2022-11-15T07:29:02;29.50;;;15.30;;
24995;SDS011;13016;52.162;21.034;2022-11-15T07:31:27;31.20;;;15.90;;
24995;SDS011;13016;52.162;21.034;2022-11-15T07:33:52;29.90;;;17.30;;
24995;SDS011;13016;52.162;21.034;2022-11-15T07:36:18;32.00;;;18.20;;
24995;SDS011;13016;52.162;21.034;2022-11-15T07:38:43;28.10;;;15.90;;
24995;SDS011;13016;52.162;21.034;2022-11-15T07:41:08;28.30;;;15.40;;
24995;SDS011;13016;52.162;21.034;2022-11-15T07:43:34;33.30;;;16.50;;
24995;SDS011;13016;52.162;21.034;2022-11-15T07:46:04;29.70;;;15.50;;
24995;SDS011;13016;52.162;21.034;2022-11-15T07:48:33;29.90;;;15.00;;
24995;SDS011;13016;52.162;21.034;2022-11-15T07:50:58;28.10;;;15.10;;
24995;SDS011;13016;52.162;21.034;2022-11-15T07:53:23;24.50;;;14.10;;
24995;SDS011;13016;52.162;21.034;2022-11-15T07:55:49;25.10;;;13.80;;
24995;SDS011;13016;52.162;21.034;2022-11-15T07:58:14;22.30;;;13.50;;
24995;SDS011;13016;52.162;21.034;2022-11-15T08:00:40;25.90;;;13.90;;
24995;SDS011;13016;52.162;21.034;2022-11-15T08:03:06;23.90;;;12.90;;
24995;SDS011;13016;52.162;21.034;2022-11-15T08:05:34;24.30;;;14.40;;
24995;SDS011;13016;52.162;21.034;2022-11-15T08:08:00;23.30;;;12.70;;
24995;SDS011;13016;52.162;21.034;2022-11-15T08:10:26;21.00;;;12.80;;
24995;SDS011;13016;52.162;21.034;2022-11-15T08:12:58;24.80;;;14.00;;
24995;SDS011;13016;52.162;21.034;2022-11-15T08:15:25;23.00;;;12.40;;
24995;SDS011;13016;52.162;21.034;2022-11-15T08:17:54;23.30;;;13.70;;
24995;SDS011;13016;52.162;21.034;2022-11-15T08:20:23;20.20;;;11.90;;
24995;SDS011;13016;52.162;21.034;2022-11-15T08:22:49;23.30;;;12.60;;
24995;SDS011;13016;52.162;21.034;2022-11-15T08:25:15;22.10;;;13.00;;
24995;SDS011;13016;52.162;21.034;2022-11-15T08:27:40;25.90;;;13.90;;
24995;SDS011;13016;52.162;21.034;2022-11-15T08:30:06;23.60;;;13.30;;
24995;SDS011;13016;52.162;21.034;2022-11-15T08:32:32;24.30;;;13.50;;
24995;SDS011;13016;52.162;21.034;2022-11-15T08:34:57;24.70;;;13.60;;
24995;SDS011;13016;52.162;21.034;2022-11-15T08:37:22;29.30;;;14.50;;
24995;SDS011;13016;52.162;21.034;2022-11-15T08:39:48;26.30;;;14.60;;
24995;SDS011;13016;52.162;21.034;2022-11-15T08:42:13;23.60;;;13.60;;
24995;SDS011;13016;52.162;21.034;2022-11-15T08:44:38;25.10;;;14.00;;
24995;SDS011;13016;52.162;21.034;2022-11-15T08:47:03;24.40;;;13.10;;
24995;SDS011;13016;52.162;21.034;2022-11-15T08:49:29;23.20;;;14.30;;
24995;SDS011;13016;52.162;21.034;2022-11-15T08:51:55;23.40;;;14.10;;
24995;SDS011;13016;52.162;21.034;2022-11-15T08:54:20;24.90;;;14.40;;
24995;SDS011;13016;52.162;21.034;2022-11-15T08:56:45;26.30;;;13.80;;
24995;SDS011;13016;52.162;21.034;2022-11-15T08:59:10;22.40;;;13.40;;
24995;SDS011;13016;52.162;21.034;2022-11-15T09:01:36;23.20;;;13.70;;
24995;SDS011;13016;52.162;21.034;2022-11-15T09:04:01;26.70;;;14.80;;
24995;SDS011;13016;52.162;21.034;2022-11-15T09:06:26;25.00;;;12.80;;
24995;SDS011;13016;52.162;21.034;2022-11-15T09:08:55;22.40;;;12.80;;
24995;SDS011;13016;52.162;21.034;2022-11-15T09:11:21;22.60;;;13.10;;
24995;SDS011;13016;52.162;21.034;2022-11-15T09:13:46;23.60;;;14.00;;
24995;SDS011;13016;52.162;21.034;2022-11-15T09:16:11;23.30;;;13.30;;
24995;SDS011;13016;52.162;21.034;2022-11-15T09:18:37;26.50;;;14.20;;
24995;SDS011;13016;52.162;21.034;2022-11-15T09:21:02;26.80;;;14.30;;
24995;SDS011;13016;52.162;21.034;2022-11-15T09:23:27;25.70;;;15.20;;
24995;SDS011;13016;52.162;21.034;2022-11-15T09:25:57;22.20;;;13.40;;
24995;SDS011;13016;52.162;21.034;2022-11-15T09:28:24;28.10;;;14.30;;
24995;SDS011;13016;52.162;21.034;2022-11-15T09:30:49;24.30;;;14.10;;
24995;SDS011;13016;52.162;21.034;2022-11-15T09:33:14;22.30;;;13.10;;
24995;SDS011;13016;52.162;21.034;2022-11-15T09:35:39;49.90;;;29.60;;
24995;SDS011;13016;52.162;21.034;2022-11-15T09:38:05;25.30;;;13.70;;
24995;SDS011;13016;52.162;21.034;2022-11-15T09:40:31;25.80;;;14.30;;
24995;SDS011;13016;52.162;21.034;2022-11-15T09:48:56;24.70;;;14.00;;
24995;SDS011;13016;52.162;21.034;2022-11-15T09:56:31;25.20;;;14.90;;
24995;SDS011;13016;52.162;21.034;2022-11-15T10:01:56;25.20;;;14.10;;
24995;SDS011;13016;52.162;21.034;2022-11-15T10:04:37;27.80;;;15.80;;
24995;SDS011;13016;52.162;21.034;2022-11-15T10:07:14;22.20;;;13.90;;
24995;SDS011;13016;52.162;21.034;2022-11-15T10:12:49;28.50;;;14.50;;
24995;SDS011;13016;52.162;21.034;2022-11-15T10:15:17;24.80;;;14.40;;
24995;SDS011;13016;52.162;21.034;2022-11-15T10:18:00;22.30;;;13.70;;
24995;SDS011;13016;52.162;21.034;2022-11-15T10:20:50;24.90;;;14.10;;
24995;SDS011;13016;52.162;21.034;2022-11-15T10:23:24;23.30;;;13.80;;
24995;SDS011;13016;52.162;21.034;2022-11-15T10:25:53;25.40;;;14.90;;
24995;SDS011;13016;52.162;21.034;2022-11-15T10:28:28;24.70;;;15.90;;
24995;SDS011;13016;52.162;21.034;2022-11-15T10:30:56;25.50;;;14.00;;
24995;SDS011;13016;52.162;21.034;2022-11-15T10:33:29;25.70;;;15.40;;
24995;SDS011;13016;52.162;21.034;2022-11-15T10:41:16;26.70;;;15.20;;
24995;SDS011;13016;52.162;21.034;2022-11-15T10:43:41;25.70;;;16.10;;
24995;SDS011;13016;52.162;21.034;2022-11-15T10:46:20;26.40;;;15.10;;
24995;SDS011;13016;52.162;21.034;2022-11-15T10:48:47;26.10;;;15.60;;
24995;SDS011;13016;52.162;21.034;2022-11-15T10:51:46;24.80;;;15.80;;
24995;SDS011;13016;52.162;21.034;2022-11-15T10:56:35;24.60;;;14.60;;
24995;SDS011;13016;52.162;21.034;2022-11-15T10:59:00;24.60;;;14.60;;
24995;SDS011;13016;52.162;21.034;2022-11-15T11:01:26;20.20;;;13.30;;
24995;SDS011;13016;52.162;21.034;2022-11-15T11:06:28;25.50;;;14.00;;
24995;SDS011;13016;52.162;21.034;2022-11-15T11:08:56;26.70;;;15.60;;
24995;SDS011;13016;52.162;21.034;2022-11-15T11:11:24;26.40;;;15.50;;
24995;SDS011;13016;52.162;21.034;2022-11-15T11:13:50;27.10;;;15.70;;
24995;SDS011;13016;52.162;21.034;2022-11-15T11:16:34;23.70;;;15.10;;
24995;SDS011;13016;52.162;21.034;2022-11-15T11:27:03;25.60;;;15.10;;
24995;SDS011;13016;52.162;21.034;2022-11-15T11:32:27;27.00;;;16.10;;
24995;SDS011;13016;52.162;21.034;2022-11-15T11:35:17;25.50;;;15.50;;
24995;SDS011;13016;52.162;21.034;2022-11-15T11:45:44;29.00;;;16.50;;
24995;SDS011;13016;52.162;21.034;2022-11-15T11:53:56;30.40;;;18.20;;
24995;SDS011;13016;52.162;21.034;2022-11-15T11:56:29;28.60;;;16.90;;
24995;SDS011;13016;52.162;21.034;2022-11-15T11:59:09;28.50;;;17.10;;
24995;SDS011;13016;52.162;21.034;2022-11-15T12:01:47;28.90;;;16.70;;
24995;SDS011;13016;52.162;21.034;2022-11-15T12:15:23;28.60;;;16.00;;
24995;SDS011;13016;52.162;21.034;2022-11-15T12:18:08;30.30;;;17.90;;
24995;SDS011;13016;52.162;21.034;2022-11-15T12:20:40;30.60;;;18.00;;
24995;SDS011;13016;52.162;21.034;2022-11-15T12:23:17;29.60;;;17.50;;
24995;SDS011;13016;52.162;21.034;2022-11-15T12:28:18;30.40;;;18.60;;
24995;SDS011;13016;52.162;21.034;2022-11-15T12:30:52;26.50;;;15.90;;
24995;SDS011;13016;52.162;21.034;2022-11-15T12:33:55;29.10;;;17.50;;
24995;SDS011;13016;52.162;21.034;2022-11-15T12:43:39;31.10;;;18.30;;
24995;SDS011;13016;52.162;21.034;2022-11-15T12:46:10;31.10;;;17.60;;
24995;SDS011;13016;52.162;21.034;2022-11-15T12:51:03;32.60;;;19.20;;
24995;SDS011;13016;52.162;21.034;2022-11-15T12:53:33;32.80;;;19.20;;
24995;SDS011;13016;52.162;21.034;2022-11-15T12:58:47;31.60;;;18.70;;
24995;SDS011;13016;52.162;21.034;2022-11-15T13:12:00;29.30;;;19.00;;
24995;SDS011;13016;52.162;21.034;2022-11-15T13:17:16;28.90;;;17.60;;
24995;SDS011;13016;52.162;21.034;2022-11-15T13:19:45;26.60;;;17.50;;
24995;SDS011;13016;52.162;21.034;2022-11-15T13:22:12;27.80;;;16.60;;
24995;SDS011;13016;52.162;21.034;2022-11-15T13:24:39;31.10;;;18.20;;
24995;SDS011;13016;52.162;21.034;2022-11-15T13:27:14;31.60;;;18.20;;
24995;SDS011;13016;52.162;21.034;2022-11-15T13:29:43;30.20;;;18.80;;
24995;SDS011;13016;52.162;21.034;2022-11-15T13:32:12;30.50;;;19.20;;
24995;SDS011;13016;52.162;21.034;2022-11-15T13:34:38;32.50;;;20.40;;
24995;SDS011;13016;52.162;21.034;2022-11-15T13:37:11;30.90;;;19.70;;
24995;SDS011;13016;52.162;21.034;2022-11-15T13:39:52;29.00;;;18.60;;
24995;SDS011;13016;52.162;21.034;2022-11-15T13:42:18;31.30;;;18.70;;
24995;SDS011;13016;52.162;21.034;2022-11-15T13:44:58;31.10;;;18.50;;
24995;SDS011;13016;52.162;21.034;2022-11-15T13:47:26;32.80;;;19.40;;
24995;SDS011;13016;52.162;21.034;2022-11-15T13:49:52;30.70;;;19.00;;
24995;SDS011;13016;52.162;21.034;2022-11-15T13:52:18;35.80;;;20.40;;
24995;SDS011;13016;52.162;21.034;2022-11-15T13:54:56;34.60;;;19.70;;
24995;SDS011;13016;52.162;21.034;2022-11-15T13:57:30;32.40;;;20.30;;
24995;SDS011;13016;52.162;21.034;2022-11-15T14:00:05;38.90;;;20.60;;
24995;SDS011;13016;52.162;21.034;2022-11-15T14:02:47;37.80;;;20.90;;
24995;SDS011;13016;52.162;21.034;2022-11-15T14:05:14;35.60;;;21.10;;
24995;SDS011;13016;52.162;21.034;2022-11-15T14:10:40;31.80;;;19.40;;
24995;SDS011;13016;52.162;21.034;2022-11-15T14:13:10;33.10;;;20.10;;
24995;SDS011;13016;52.162;21.034;2022-11-15T14:15:51;37.60;;;21.80;;
24995;SDS011;13016;52.162;21.034;2022-11-15T14:21:09;36.00;;;19.60;;
24995;SDS011;13016;52.162;21.034;2022-11-15T14:23:34;34.00;;;21.10;;
24995;SDS011;13016;52.162;21.034;2022-11-15T14:25:59;36.00;;;20.80;;
24995;SDS011;13016;52.162;21.034;2022-11-15T14:30:51;37.30;;;20.90;;
24995;SDS011;13016;52.162;21.034;2022-11-15T14:33:30;36.20;;;20.10;;
24995;SDS011;13016;52.162;21.034;2022-11-15T14:36:01;38.80;;;20.60;;
24995;SDS011;13016;52.162;21.034;2022-11-15T14:38:29;38.80;;;21.20;;
24995;SDS011;13016;52.162;21.034;2022-11-15T14:40:54;38.50;;;22.30;;
24995;SDS011;13016;52.162;21.034;2022-11-15T14:43:20;35.20;;;20.60;;
24995;SDS011;13016;52.162;21.034;2022-11-15T14:45:45;35.10;;;20.00;;
24995;SDS011;13016;52.162;21.034;2022-11-15T14:48:11;35.50;;;20.10;;
24995;SDS011;13016;52.162;21.034;2022-11-15T14:50:36;39.20;;;21.00;;
24995;SDS011;13016;52.162;21.034;2022-11-15T14:53:02;35.40;;;20.60;;
24995;SDS011;13016;52.162;21.034;2022-11-15T14:55:29;35.30;;;21.00;;
24995;SDS011;13016;52.162;21.034;2022-11-15T14:57:59;44.50;;;22.80;;
24995;SDS011;13016;52.162;21.034;2022-11-15T15:00:24;42.70;;;21.70;;
24995;SDS011;13016;52.162;21.034;2022-11-15T15:02:51;36.90;;;21.50;;
24995;SDS011;13016;52.162;21.034;2022-11-15T15:05:22;38.70;;;22.30;;
24995;SDS011;13016;52.162;21.034;2022-11-15T15:07:55;37.20;;;20.70;;
24995;SDS011;13016;52.162;21.034;2022-11-15T15:10:21;39.40;;;21.50;;
24995;SDS011;13016;52.162;21.034;2022-11-15T15:12:47;38.50;;;22.40;;
24995;SDS011;13016;52.162;21.034;2022-11-15T15:15:14;41.00;;;22.10;;
24995;SDS011;13016;52.162;21.034;2022-11-15T15:17:42;40.70;;;21.90;;
24995;SDS011;13016;52.162;21.034;2022-11-15T15:20:07;41.00;;;22.30;;
24995;SDS011;13016;52.162;21.034;2022-11-15T15:22:33;43.20;;;23.30;;
24995;SDS011;13016;52.162;21.034;2022-11-15T15:24:58;42.30;;;22.50;;
24995;SDS011;13016;52.162;21.034;2022-11-15T15:27:23;40.40;;;22.90;;
24995;SDS011;13016;52.162;21.034;2022-11-15T15:29:49;37.70;;;22.20;;
24995;SDS011;13016;52.162;21.034;2022-11-15T15:32:14;36.50;;;20.70;;
24995;SDS011;13016;52.162;21.034;2022-11-15T15:34:39;40.40;;;23.10;;
24995;SDS011;13016;52.162;21.034;2022-11-15T15:37:08;41.30;;;21.90;;
24995;SDS011;13016;52.162;21.034;2022-11-15T15:39:46;40.20;;;21.90;;
24995;SDS011;13016;52.162;21.034;2022-11-15T15:42:11;40.00;;;21.70;;
24995;SDS011;13016;52.162;21.034;2022-11-15T15:44:36;38.40;;;21.60;;
24995;SDS011;13016;52.162;21.034;2022-11-15T15:47:03;38.40;;;21.80;;
24995;SDS011;13016;52.162;21.034;2022-11-15T15:52:01;34.20;;;20.10;;
24995;SDS011;13016;52.162;21.034;2022-11-15T15:54:26;39.40;;;22.00;;
24995;SDS011;13016;52.162;21.034;2022-11-15T15:56:52;42.90;;;23.40;;
24995;SDS011;13016;52.162;21.034;2022-11-15T15:59:17;41.90;;;24.30;;
24995;SDS011;13016;52.162;21.034;2022-11-15T16:01:42;38.60;;;22.60;;
24995;SDS011;13016;52.162;21.034;2022-11-15T16:04:07;39.10;;;21.40;;
24995;SDS011;13016;52.162;21.034;2022-11-15T16:09:03;45.30;;;23.10;;
24995;SDS011;13016;52.162;21.034;2022-11-15T16:11:28;46.60;;;25.00;;
24995;SDS011;13016;52.162;21.034;2022-11-15T16:13:54;43.40;;;23.30;;
24995;SDS011;13016;52.162;21.034;2022-11-15T16:16:19;44.20;;;24.10;;
24995;SDS011;13016;52.162;21.034;2022-11-15T16:18:46;50.40;;;26.40;;
24995;SDS011;13016;52.162;21.034;2022-11-15T16:21:12;50.00;;;24.70;;
24995;SDS011;13016;52.162;21.034;2022-11-15T16:23:37;49.10;;;25.10;;
24995;SDS011;13016;52.162;21.034;2022-11-15T16:26:06;45.00;;;24.00;;
24995;SDS011;13016;52.162;21.034;2022-11-15T16:28:43;48.00;;;24.90;;
24995;SDS011;13016;52.162;21.034;2022-11-15T16:31:09;48.90;;;25.20;;
24995;SDS011;13016;52.162;21.034;2022-11-15T16:33:36;45.70;;;23.90;;
24995;SDS011;13016;52.162;21.034;2022-11-15T16:36:02;44.60;;;23.20;;
24995;SDS011;13016;52.162;21.034;2022-11-15T16:38:29;44.40;;;21.70;;
24995;SDS011;13016;52.162;21.034;2022-11-15T16:40:55;45.90;;;22.40;;
24995;SDS011;13016;52.162;21.034;2022-11-15T16:43:20;39.80;;;22.30;;